Aviation Digital Data Service (ADDS)

Output produced by METARs form (0508 UTC 21 September 2017)
found at http://www.aviationweather.gov/adds/metars/
 
LUKK 210500Z 09004KT 8000 OVC004 20/19 Q1006 R08/D TEMPO BKN004
TAF LUKK 202320Z 2100/2124 VRB05KT 9999 BKN020 
     TEMPO 2101/2107 3000 SHRA BR BKN005 BKN015CB 
     PROB30 
     TEMPO 2102/2106 0800 FG VV/// 
     BECMG 2107/2109 28008KT BKN020 BKN030CB 
     TEMPO 2110/2118 30018G28KT 4000 TSRA BKN012 BKN020CB
       
LUBM 210500Z 12005KT CAVOK 17/14 Q1007 R25/CLRD65
TAF LUBM 210435Z 2104/2112 10006KT 9999 BKN025 
     TEMPO 2104/2107 3000 BR BKN008 
     BECMG 2106/2108 28008KT 
     TEMPO 2107/2112 30018G28KT 4000 TSRA BKN008 BKN020CB
       
LUKK 210500Z 09004KT 8000 OVC004 20/19 Q1006 R08/D TEMPO BKN004
TAF LUKK 202320Z 2100/2124 VRB05KT 9999 BKN020 
     TEMPO 2101/2107 3000 SHRA BR BKN005 BKN015CB 
     PROB30 
     TEMPO 2102/2106 0800 FG VV/// 
     BECMG 2107/2109 28008KT BKN020 BKN030CB 
     TEMPO 2110/2118 30018G28KT 4000 TSRA BKN012 BKN020CB